createdAt,value
2019-06-07T14:31:13.159Z,37.50
2019-06-07T14:34:07.954Z,33.42
2019-06-07T14:40:31.900Z,29.23
2019-06-07T14:43:27.571Z,36.17
2019-06-07T14:46:24.026Z,29.07
2019-06-07T14:49:18.506Z,29.48
2019-06-07T14:52:15.323Z,34.75
2019-06-07T14:55:11.653Z,35.05
2019-06-07T14:58:08.315Z,32.85
2019-06-07T15:01:02.490Z,38.23
2019-06-07T15:03:58.551Z,42.40
2019-06-07T15:06:53.476Z,34.60
2019-06-07T15:09:48.770Z,36.88
2019-06-07T15:12:43.444Z,32.85
2019-06-07T15:15:38.976Z,31.12
2019-06-07T15:18:33.954Z,28.10
2019-06-07T15:21:32.943Z,21.62
2019-06-07T15:24:26.089Z,32.67
2019-06-07T15:27:20.621Z,21.07
2019-06-07T15:30:15.793Z,29.77
2019-06-07T15:33:10.573Z,28.60
2019-06-07T15:36:06.715Z,19.02
2019-06-07T15:39:01.851Z,22.20
2019-06-07T15:41:58.611Z,20.25
2019-06-07T15:44:55.883Z,24.18
2019-06-07T15:47:50.442Z,25.02
2019-06-07T15:50:50.222Z,26.73
2019-06-07T15:53:44.979Z,29.37
2019-06-07T15:56:41.782Z,39.85
2019-06-07T15:59:37.417Z,37.98
2019-06-07T16:02:33.466Z,34.65
2019-06-07T16:05:28.976Z,38.78
2019-06-07T16:08:23.513Z,34.70
2019-06-07T16:11:18.555Z,35.33
2019-06-07T16:14:14.854Z,44.25
2019-06-07T16:17:10.528Z,56.13
2019-06-07T16:20:05.180Z,65.28
2019-06-07T16:23:00.425Z,63.42
2019-06-07T16:25:54.997Z,45.00
2019-06-07T16:28:51.168Z,58.92
2019-06-07T16:31:46.119Z,58.02
2019-06-07T16:34:41.847Z,49.77
2019-06-07T16:37:38.163Z,47.17
2019-06-07T16:40:34.250Z,58.15
2019-06-07T16:43:28.952Z,49.10
2019-06-07T16:46:24.990Z,44.13
2019-06-07T16:49:19.500Z,52.13
2019-06-07T16:52:13.460Z,53.55
2019-06-07T16:55:08.336Z,53.60
2019-06-07T16:58:02.834Z,46.88
2019-06-07T17:00:59.075Z,44.65
2019-06-07T17:03:53.709Z,38.80
2019-06-07T17:06:48.290Z,48.08
2019-06-07T17:09:45.286Z,41.53
2019-06-07T17:12:38.676Z,42.38
2019-06-07T17:15:32.906Z,43.23
2019-06-07T17:18:27.599Z,35.43
2019-06-07T17:21:21.806Z,44.33
2019-06-07T17:24:16.337Z,39.75
2019-06-07T17:27:11.146Z,36.93
2019-06-07T17:30:06.102Z,39.03
2019-06-07T17:33:00.333Z,36.68
2019-06-07T17:35:54.870Z,41.40
2019-06-07T17:38:48.948Z,43.23
2019-06-07T17:41:54.817Z,33.85
2019-06-07T17:44:38.880Z,39.27
2019-06-07T17:47:33.253Z,34.15
2019-06-07T17:50:29.407Z,37.28
2019-06-07T17:53:24.349Z,38.20
2019-06-07T17:56:19.503Z,45.52
2019-06-07T17:59:13.839Z,33.85
2019-06-07T18:02:14.691Z,35.92
2019-06-07T18:05:03.747Z,35.65
2019-06-07T18:07:59.474Z,30.08
2019-06-07T18:10:54.142Z,40.15
2019-06-07T18:14:05.095Z,34.90
2019-06-07T18:16:44.564Z,36.50
2019-06-07T18:19:38.714Z,29.07
2019-06-07T18:22:32.790Z,35.83
2019-06-07T18:25:28.168Z,36.80
2019-06-07T18:28:22.567Z,32.67
2019-06-07T18:31:17.171Z,38.35
2019-06-07T18:34:11.224Z,37.60
2019-06-07T18:37:05.350Z,31.80
2019-06-07T18:40:00.943Z,37.40
2019-06-07T18:42:55.647Z,51.50
2019-06-07T18:45:51.061Z,66.50
2019-06-07T18:48:46.419Z,45.15
2019-06-07T18:51:41.984Z,46.80
2019-06-07T18:54:36.167Z,36.60
2019-06-07T18:57:30.569Z,36.80
2019-06-07T19:00:27.052Z,39.83
2019-06-07T19:03:21.432Z,35.68
2019-06-07T19:06:15.654Z,36.50
2019-06-07T19:09:10.650Z,42.62
2019-06-07T19:12:05.138Z,33.20
2019-06-07T19:14:59.724Z,37.50
2019-06-07T19:17:54.167Z,33.78
2019-06-07T19:20:50.507Z,32.45
2019-06-07T19:23:45.414Z,33.53
2019-06-07T19:26:39.593Z,39.10
2019-06-07T19:29:34.836Z,33.90
2019-06-07T19:32:30.316Z,38.65
2019-06-07T19:35:24.926Z,36.48
2019-06-07T19:38:19.242Z,44.08
2019-06-07T19:41:19.570Z,30.72
2019-06-07T19:44:09.164Z,33.88
2019-06-07T19:47:03.370Z,38.42
2019-06-07T19:49:58.868Z,39.83
2019-06-07T19:52:54.918Z,38.38
2019-06-07T19:55:49.518Z,35.68
2019-06-07T19:58:46.167Z,31.80
2019-06-07T20:01:40.517Z,33.67
2019-06-07T20:04:34.827Z,36.10
2019-06-07T20:07:30.190Z,40.28
2019-06-07T20:10:24.598Z,43.30
2019-06-07T20:13:19.232Z,34.15
2019-06-07T20:16:15.285Z,37.23
2019-06-07T20:19:09.744Z,40.52
2019-06-07T20:22:05.495Z,34.75
2019-06-07T20:25:01.482Z,42.05
2019-06-07T20:27:57.495Z,29.32
2019-06-07T20:30:52.333Z,36.60
2019-06-07T20:33:47.673Z,41.50
2019-06-07T20:36:45.874Z,31.35
2019-06-07T20:39:41.017Z,32.93
2019-06-07T20:42:35.593Z,38.42
2019-06-07T20:45:33.689Z,34.98
2019-06-07T20:48:26.120Z,35.52
2019-06-07T20:51:20.323Z,35.55
2019-06-07T20:54:16.060Z,39.90
2019-06-07T20:57:11.422Z,34.53
2019-06-07T21:00:14.167Z,45.33
2019-06-07T21:03:05.306Z,50.73
2019-06-07T21:06:01.553Z,43.00
2019-06-07T21:08:57.465Z,54.15
2019-06-07T21:11:51.627Z,49.75
2019-06-07T21:14:45.895Z,48.48
2019-06-07T21:17:40.584Z,45.40
2019-06-07T21:20:37.386Z,49.75
2019-06-07T21:23:31.920Z,46.08
2019-06-07T21:26:26.016Z,57.67
2019-06-07T21:29:21.934Z,51.75
2019-06-07T21:32:17.479Z,46.65
2019-06-07T21:35:12.693Z,44.30
2019-06-07T21:38:07.861Z,45.80
2019-06-07T21:41:02.249Z,44.38
2019-06-07T21:43:56.627Z,56.08
2019-06-07T21:46:50.920Z,55.67
2019-06-07T21:49:45.339Z,73.35
2019-06-07T21:52:39.770Z,65.28
2019-06-07T21:55:34.024Z,65.10
2019-06-07T21:58:28.369Z,76.85
2019-06-07T22:01:29.746Z,81.95
2019-06-07T22:04:24.199Z,69.60
2019-06-07T22:07:18.510Z,85.00
2019-06-07T22:10:12.636Z,74.30
2019-06-07T22:13:08.001Z,74.05
2019-06-07T22:16:04.069Z,75.92
2019-06-07T22:18:58.362Z,64.07
2019-06-07T22:22:02.297Z,85.38
2019-06-07T22:24:49.508Z,65.60
2019-06-07T22:27:44.010Z,49.25
2019-06-07T22:30:38.065Z,60.63
2019-06-07T22:33:32.345Z,52.43
2019-06-07T22:36:26.605Z,52.58
2019-06-07T22:39:20.846Z,58.83
2019-06-07T22:42:15.266Z,51.37
2019-06-07T22:45:10.869Z,44.05
2019-06-07T22:48:06.795Z,52.85
2019-06-07T22:51:02.208Z,50.88
2019-06-07T22:53:56.203Z,50.95
2019-06-07T22:57:03.865Z,48.63
2019-06-07T22:59:58.292Z,55.88
2019-06-07T23:02:52.589Z,55.30
2019-06-07T23:05:47.002Z,58.15
2019-06-07T23:08:41.096Z,53.42
2019-06-07T23:11:35.232Z,55.33
2019-06-07T23:14:29.336Z,67.05
2019-06-07T23:17:23.771Z,60.75
2019-06-07T23:20:18.123Z,55.38
2019-06-07T23:23:12.492Z,69.58
2019-06-07T23:26:06.855Z,80.57
2019-06-07T23:29:00.985Z,59.33
2019-06-07T23:31:55.015Z,59.73
2019-06-07T23:34:50.194Z,53.45
2019-06-07T23:37:46.089Z,54.67
2019-06-07T23:40:40.283Z,45.25
2019-06-07T23:43:34.643Z,42.25
2019-06-07T23:46:28.779Z,43.75
2019-06-07T23:49:22.824Z,40.67
2019-06-07T23:52:17.841Z,36.75
2019-06-07T23:55:13.768Z,45.23
2019-06-07T23:58:08.404Z,48.35
